This is the latest recevied weather packets stored in our database for station/object DB0RV-13. If no packets are shown the sender has not sent any weather packets the latest 1 day(s).
| Time | Temp. | Humidity | Pressure | Rain* | Wind** | Luminosity | Snow |
|---|---|---|---|---|---|---|---|
| 1836274675 | 15° C | 90% | 1021 hPa | - | 0.89 m/s, 309° | - | - |
| 1836274526 | 13.33° C | 90% | 1021 hPa | - | 0.45 m/s, 242° | - | - |
| 1836274375 | 14.44° C | 90% | 1021 hPa | - | 1.34 m/s, 296° | - | - |
| 1836274226 | 14.44° C | 88% | 1020.9 hPa | - | 1.34 m/s, 296° | - | - |
| 1836274076 | 13.89° C | 93% | 1021 hPa | - | 1.34 m/s, 311° | - | - |
| 1778031002 | 9.44° C | 89% | 1007.9 hPa | - | 0.45 m/s, 63° | - | - |
| 1778030701 | 9.44° C | 88% | 1007.9 hPa | - | 0 m/s | - | - |
| 1778030402 | 9.44° C | 89% | 1008 hPa | - | 0.89 m/s, 282° | - | - |
| 1778030102 | 10° C | 89% | 1008 hPa | - | 0.45 m/s, 260° | - | - |
| 1778029801 | 10° C | 88% | 1007.8 hPa | - | 0.45 m/s, 300° | - | - |
| 1778029502 | 10° C | 88% | 1007.9 hPa | - | 0 m/s | - | - |
| 1778029202 | 10° C | 88% | 1008.1 hPa | - | 0.45 m/s, 267° | - | - |
| 1778028901 | 10° C | 88% | 1008.2 hPa | - | 0.89 m/s, 241° | - | - |
| 1778028602 | 10° C | 88% | 1008.3 hPa | - | 1.34 m/s, 244° | - | - |
| 1778028302 | 10° C | 87% | 1008.3 hPa | - | 0.89 m/s, 284° | - | - |
| 1778028001 | 10° C | 88% | 1008.3 hPa | - | 1.79 m/s, 286° | - | - |
| 1778027702 | 10° C | 88% | 1008.4 hPa | - | 1.79 m/s, 238° | - | - |
| 1778027402 | 10° C | 87% | 1008.2 hPa | - | 0.45 m/s, 272° | - | - |
| 1778027101 | 10° C | 87% | 1008.2 hPa | - | 0.45 m/s, 299° | - | - |
| 1778026802 | 10.56° C | 85% | 1008.1 hPa | - | 0.89 m/s, 332° | - | - |
| 1778026502 | 10.56° C | 87% | 1008.1 hPa | - | 0 m/s | - | - |
| 1778026201 | 10° C | 87% | 1008.3 hPa | - | 0 m/s | - | - |
| 1778025902 | 10.56° C | 87% | 1008.3 hPa | - | 0 m/s | - | - |
| 1778025602 | 10° C | 88% | 1008.2 hPa | - | 0.45 m/s, 224° | - | - |
| 1778025301 | 10° C | 87% | 1008.3 hPa | - | 0.89 m/s, 277° | - | - |
* Rain since midnight (hover to see other rain measurements)
** Current wind speed in m/s (hover to see current wind gust speed)